createdAt,value
2023-01-29T00:01:05.531Z,-0.93
2023-01-29T00:03:33.269Z,-0.88
2023-01-29T00:06:00.847Z,-0.87
2023-01-29T00:08:27.925Z,-0.87
2023-01-29T00:11:00.970Z,-0.83
2023-01-29T00:13:28.711Z,-0.82
2023-01-29T00:15:57.117Z,-0.85
2023-01-29T00:18:25.419Z,-0.85
2023-01-29T00:20:52.637Z,-0.86
2023-01-29T00:23:19.894Z,-0.94
2023-01-29T00:25:47.344Z,-0.99
2023-01-29T00:28:15.105Z,-1.02
2023-01-29T00:30:42.127Z,-1.02
2023-01-29T00:33:09.191Z,-0.96
2023-01-29T00:35:39.757Z,-0.92
2023-01-29T00:38:06.847Z,-0.92
2023-01-29T00:40:36.791Z,-0.93
2023-01-29T00:43:04.107Z,-0.95
2023-01-29T00:45:32.324Z,-1.10
2023-01-29T00:47:59.515Z,-1.19
2023-01-29T00:50:26.513Z,-1.20
2023-01-29T00:52:53.561Z,-1.27
2023-01-29T00:55:20.827Z,-1.28
2023-01-29T00:57:48.412Z,-1.25
2023-01-29T01:00:18.714Z,-1.21
2023-01-29T01:02:46.430Z,-1.18
2023-01-29T01:05:16.564Z,-1.15
2023-01-29T01:07:52.264Z,-1.21
2023-01-29T01:10:27.141Z,-1.15
2023-01-29T01:12:55.391Z,-1.15
2023-01-29T01:15:28.134Z,-1.12
2023-01-29T01:17:57.319Z,-1.10
2023-01-29T01:20:26.201Z,-1.11
2023-01-29T01:22:54.204Z,-1.12
2023-01-29T01:25:23.038Z,-1.14
2023-01-29T01:27:55.390Z,-1.15
2023-01-29T01:30:23.804Z,-1.14
2023-01-29T01:32:51.110Z,-1.22
2023-01-29T01:35:18.512Z,-1.21
2023-01-29T01:37:45.609Z,-1.21
2023-01-29T01:40:19.087Z,-1.16
2023-01-29T01:43:06.041Z,-1.10
2023-01-29T01:45:36.022Z,-1.12
2023-01-29T01:48:18.392Z,-1.13
2023-01-29T01:50:46.604Z,-1.14
2023-01-29T01:53:19.707Z,-1.11
2023-01-29T01:55:55.669Z,-1.08
2023-01-29T01:58:27.993Z,-1.12
2023-01-29T02:00:55.609Z,-1.17
2023-01-29T02:03:24.351Z,-1.16
2023-01-29T02:05:55.476Z,-1.24
2023-01-29T02:09:16.817Z,-1.23
2023-01-29T02:11:43.905Z,-1.28
2023-01-29T02:14:12.250Z,-1.28
2023-01-29T02:16:39.528Z,-1.38
2023-01-29T02:19:16.346Z,-1.41
2023-01-29T02:22:08.136Z,-1.46
2023-01-29T02:25:04.538Z,-1.50
2023-01-29T02:27:49.447Z,-1.54
2023-01-29T02:31:05.425Z,-1.58
2023-01-29T02:33:40.507Z,-1.59
2023-01-29T02:36:07.487Z,-1.60
2023-01-29T02:38:38.714Z,-1.60
2023-01-29T02:41:21.556Z,-1.58
2023-01-29T02:44:10.616Z,-1.59
2023-01-29T02:46:56.466Z,-1.58
2023-01-29T02:49:27.458Z,-1.57
2023-01-29T02:52:04.814Z,-1.55
2023-01-29T02:54:41.882Z,-1.55
2023-01-29T02:57:21.305Z,-1.53
2023-01-29T02:59:55.389Z,-1.49
2023-01-29T03:02:33.411Z,-1.47
2023-01-29T03:05:06.814Z,-1.44
2023-01-29T03:07:40.487Z,-1.44
2023-01-29T03:10:23.081Z,-1.42
2023-01-29T03:12:56.385Z,-1.38
2023-01-29T03:15:31.840Z,-1.38
2023-01-29T03:18:23.304Z,-1.33
2023-01-29T03:20:55.973Z,-1.32
2023-01-29T03:23:28.328Z,-1.31
2023-01-29T03:25:59.324Z,-1.29
2023-01-29T03:28:30.152Z,-1.33
2023-01-29T03:31:02.890Z,-1.37
2023-01-29T03:33:51.509Z,-1.39
2023-01-29T03:36:24.968Z,-1.42
2023-01-29T03:38:52.093Z,-1.49
2023-01-29T03:41:31.866Z,-1.53
2023-01-29T03:43:59.492Z,-1.65
2023-01-29T03:46:36.243Z,-1.70
2023-01-29T03:49:25.695Z,-1.71
2023-01-29T03:52:03.121Z,-1.78
2023-01-29T03:54:46.798Z,-1.76
2023-01-29T03:57:28.460Z,-1.80
2023-01-29T04:00:02.022Z,-1.81
2023-01-29T04:02:53.169Z,-1.85
2023-01-29T04:05:25.335Z,-1.86
2023-01-29T04:08:12.435Z,-1.91
2023-01-29T04:10:44.178Z,-1.95
2023-01-29T04:13:15.050Z,-1.99
2023-01-29T04:15:53.036Z,-2.01
2023-01-29T04:18:27.252Z,-2.05
2023-01-29T04:21:20.320Z,-2.10
2023-01-29T04:23:47.353Z,-2.09
2023-01-29T04:26:24.579Z,-2.11
2023-01-29T04:29:26.968Z,-2.17
2023-01-29T04:32:15.677Z,-2.17
2023-01-29T04:35:11.730Z,-2.23
2023-01-29T04:37:54.890Z,-2.26
2023-01-29T04:40:30.436Z,-2.33
2023-01-29T04:43:06.653Z,-2.39
2023-01-29T04:45:44.766Z,-2.45
2023-01-29T04:48:17.857Z,-2.50
2023-01-29T04:50:56.065Z,-2.54
2023-01-29T04:53:32.723Z,-2.51
2023-01-29T04:56:09.025Z,-2.52
2023-01-29T04:58:42.247Z,-2.52
2023-01-29T05:01:14.327Z,-2.51
2023-01-29T05:03:45.885Z,-2.49
2023-01-29T05:06:14.787Z,-2.47
2023-01-29T05:08:41.955Z,-2.54
2023-01-29T05:11:10.103Z,-2.66
2023-01-29T05:13:40.513Z,-2.73
2023-01-29T05:16:23.871Z,-2.81
2023-01-29T05:18:51.417Z,-2.87
2023-01-29T05:21:19.129Z,-2.84
2023-01-29T05:23:46.219Z,-2.84
2023-01-29T05:26:13.278Z,-2.85
2023-01-29T05:28:40.267Z,-2.84
2023-01-29T05:31:07.494Z,-2.80
2023-01-29T05:33:34.536Z,-2.79
2023-01-29T05:36:01.579Z,-2.75
2023-01-29T05:38:28.640Z,-2.72
2023-01-29T05:40:58.917Z,-2.71
2023-01-29T05:43:25.955Z,-2.74
2023-01-29T05:45:58.433Z,-2.76
2023-01-29T05:48:27.167Z,-2.72
2023-01-29T05:50:54.347Z,-2.72
2023-01-29T05:53:21.367Z,-2.76
2023-01-29T05:55:48.502Z,-2.75
2023-01-29T05:58:15.519Z,-2.71
2023-01-29T06:00:42.640Z,-2.71
2023-01-29T06:03:09.699Z,-2.67
2023-01-29T06:05:40.209Z,-2.72
2023-01-29T06:08:07.734Z,-2.80
2023-01-29T06:10:34.935Z,-2.80
2023-01-29T06:13:02.177Z,-3.00
2023-01-29T06:15:29.337Z,-2.92
2023-01-29T06:17:57.154Z,-2.95
2023-01-29T06:20:24.924Z,-2.99
2023-01-29T06:22:51.907Z,-3.01
2023-01-29T06:25:20.028Z,-2.99
2023-01-29T06:27:50.657Z,-3.04
2023-01-29T06:30:17.997Z,-2.97
2023-01-29T06:32:45.469Z,-2.89
2023-01-29T06:35:12.465Z,-2.88
2023-01-29T06:37:39.466Z,-2.85
2023-01-29T06:40:07.169Z,-2.85
2023-01-29T06:42:37.244Z,-2.81
2023-01-29T06:45:04.526Z,-2.80
2023-01-29T06:47:31.623Z,-2.74
2023-01-29T06:49:58.739Z,-2.71
2023-01-29T06:52:25.748Z,-2.71
2023-01-29T06:54:52.739Z,-2.68
2023-01-29T06:57:19.726Z,-2.67
2023-01-29T06:59:46.718Z,-2.66
2023-01-29T07:02:13.814Z,-2.64
2023-01-29T07:04:40.867Z,-2.65
2023-01-29T07:07:08.623Z,-2.66
2023-01-29T07:09:35.630Z,-2.66
2023-01-29T07:12:03.758Z,-2.63
2023-01-29T07:14:30.729Z,-2.62
2023-01-29T07:16:57.712Z,-2.73
2023-01-29T07:19:24.796Z,-2.88
2023-01-29T07:21:51.804Z,-2.86
2023-01-29T07:24:18.931Z,-2.88
2023-01-29T07:26:46.062Z,-2.97
2023-01-29T07:29:13.087Z,-2.90
2023-01-29T07:31:40.198Z,-2.78
2023-01-29T07:34:07.238Z,-2.72
2023-01-29T07:36:34.253Z,-2.71
2023-01-29T07:39:01.247Z,-2.64
2023-01-29T07:41:28.279Z,-2.58
2023-01-29T07:43:55.324Z,-2.53
2023-01-29T07:46:22.343Z,-2.43
2023-01-29T07:48:49.491Z,-2.34
2023-01-29T07:51:16.512Z,-2.23
2023-01-29T07:53:43.546Z,-2.19
2023-01-29T07:56:10.616Z,-2.14
2023-01-29T07:58:37.681Z,-2.14
2023-01-29T08:01:08.195Z,-2.18
2023-01-29T08:03:35.716Z,-2.17
2023-01-29T08:06:04.183Z,-2.22
2023-01-29T08:08:31.337Z,-2.14
2023-01-29T08:11:01.785Z,-2.19
2023-01-29T08:13:28.924Z,-2.26
2023-01-29T08:15:59.846Z,-2.17
2023-01-29T08:18:27.206Z,-2.09
2023-01-29T08:20:59.846Z,-1.94
2023-01-29T08:23:27.008Z,-1.85
2023-01-29T08:25:54.201Z,-1.76
2023-01-29T08:28:21.280Z,-1.58
2023-01-29T08:30:48.343Z,-1.55
2023-01-29T08:33:16.242Z,-1.48
2023-01-29T08:35:48.990Z,-1.32
2023-01-29T08:38:16.326Z,-1.46
2023-01-29T08:40:43.965Z,-1.54
2023-01-29T08:43:12.842Z,-1.49
2023-01-29T08:45:42.543Z,-1.39
2023-01-29T08:48:10.610Z,-1.31
2023-01-29T08:50:38.270Z,-1.21
2023-01-29T08:53:07.300Z,-1.08
2023-01-29T08:55:39.415Z,-1.05
2023-01-29T08:58:14.501Z,-1.01
2023-01-29T09:00:41.593Z,-1.03
2023-01-29T09:03:08.632Z,-1.13
2023-01-29T09:05:37.132Z,-1.10
2023-01-29T09:08:05.088Z,-1.08
2023-01-29T09:10:32.491Z,-1.10
2023-01-29T09:12:59.460Z,-1.03
2023-01-29T09:15:26.926Z,-0.91
2023-01-29T09:17:54.097Z,-0.86
2023-01-29T09:20:21.248Z,-0.72
2023-01-29T09:22:49.069Z,-0.71
2023-01-29T09:25:16.430Z,-0.70
2023-01-29T09:27:43.589Z,-0.90
2023-01-29T09:30:11.307Z,-0.98
2023-01-29T09:32:52.758Z,-0.86
2023-01-29T09:35:21.827Z,-0.70
2023-01-29T09:37:49.654Z,-0.55
2023-01-29T09:40:30.629Z,-0.44
2023-01-29T09:43:04.156Z,-0.41
2023-01-29T09:45:31.444Z,-0.48
2023-01-29T09:48:04.260Z,-0.35
2023-01-29T09:50:33.501Z,-0.49
2023-01-29T09:53:27.751Z,-0.71
2023-01-29T09:56:02.189Z,-0.67
2023-01-29T09:58:34.698Z,-0.66
2023-01-29T10:01:15.341Z,-0.56
2023-01-29T10:04:01.179Z,-0.38
2023-01-29T10:06:49.654Z,-0.45
2023-01-29T10:09:28.250Z,-0.42
2023-01-29T10:12:38.463Z,-0.64
2023-01-29T10:15:28.225Z,-0.37
2023-01-29T10:18:33.959Z,-0.20
2023-01-29T10:21:12.337Z,-0.15
2023-01-29T10:24:08.689Z,0.08
2023-01-29T10:26:36.610Z,0.25
2023-01-29T10:29:07.003Z,0.22
2023-01-29T10:31:39.457Z,0.41
2023-01-29T10:34:21.074Z,0.51
2023-01-29T10:36:49.653Z,0.56
2023-01-29T10:39:18.201Z,0.44
2023-01-29T10:42:00.382Z,0.48
2023-01-29T10:44:38.647Z,0.54
2023-01-29T10:47:24.323Z,0.17
2023-01-29T10:50:18.696Z,0.33
2023-01-29T10:52:51.516Z,0.25
2023-01-29T10:55:40.016Z,0.37
2023-01-29T10:58:31.573Z,0.43
2023-01-29T11:00:58.934Z,0.74
2023-01-29T11:03:31.919Z,0.96
2023-01-29T11:06:04.823Z,1.03
2023-01-29T11:08:38.318Z,1.10
2023-01-29T11:11:12.189Z,1.11
2023-01-29T11:13:50.541Z,1.03
2023-01-29T11:16:17.662Z,1.08
2023-01-29T11:18:59.183Z,1.16
2023-01-29T11:21:28.193Z,1.11
2023-01-29T11:24:14.348Z,1.24
2023-01-29T11:26:42.641Z,1.10
2023-01-29T11:29:34.830Z,1.25
2023-01-29T11:32:04.552Z,1.23
2023-01-29T11:34:31.508Z,1.39
2023-01-29T11:37:14.787Z,1.55
2023-01-29T11:39:45.854Z,1.67
2023-01-29T11:42:23.198Z,1.73
2023-01-29T11:44:50.284Z,1.91
2023-01-29T11:47:20.847Z,1.86
2023-01-29T11:49:51.306Z,1.86
2023-01-29T11:52:24.036Z,2.04
2023-01-29T11:54:54.171Z,1.94
2023-01-29T11:57:35.571Z,1.90
2023-01-29T12:00:47.905Z,1.76
2023-01-29T12:03:25.216Z,1.73
2023-01-29T12:06:02.831Z,1.98
2023-01-29T12:08:36.483Z,2.13
2023-01-29T12:11:14.525Z,1.86
2023-01-29T12:13:42.360Z,2.03
2023-01-29T12:16:32.544Z,1.97
2023-01-29T12:19:29.455Z,2.30
2023-01-29T12:22:05.625Z,2.50
2023-01-29T12:24:43.830Z,2.42
2023-01-29T12:27:47.908Z,2.28
2023-01-29T12:30:25.719Z,2.13
2023-01-29T12:33:08.504Z,2.29
2023-01-29T12:35:48.054Z,2.28
2023-01-29T12:38:20.449Z,2.04
2023-01-29T12:40:55.737Z,1.79
2023-01-29T12:43:35.710Z,1.71
2023-01-29T12:46:06.459Z,1.71
2023-01-29T12:48:36.722Z,1.58
2023-01-29T12:51:13.206Z,1.47
2023-01-29T12:54:09.575Z,1.47
2023-01-29T12:56:44.587Z,1.39
2023-01-29T12:59:29.136Z,1.28
2023-01-29T13:02:12.673Z,1.21
2023-01-29T13:04:53.320Z,1.03
2023-01-29T13:07:36.360Z,1.03
2023-01-29T13:10:17.143Z,0.99
2023-01-29T13:13:15.201Z,0.84
2023-01-29T13:15:44.097Z,0.83
2023-01-29T13:18:33.451Z,0.80
2023-01-29T13:21:01.111Z,0.71
2023-01-29T13:23:39.287Z,0.86
2023-01-29T13:26:06.473Z,0.60
2023-01-29T13:28:33.848Z,0.61
2023-01-29T13:31:17.652Z,0.61
2023-01-29T13:33:53.603Z,0.60
2023-01-29T13:36:27.172Z,0.61
2023-01-29T13:39:00.112Z,0.58
2023-01-29T13:41:55.694Z,0.59
2023-01-29T13:44:39.209Z,0.57
2023-01-29T13:47:09.724Z,0.63
2023-01-29T13:49:45.370Z,0.58
2023-01-29T13:52:24.462Z,0.52
2023-01-29T13:55:14.508Z,0.36
2023-01-29T13:57:44.529Z,0.38
2023-01-29T14:00:20.772Z,0.44
2023-01-29T14:03:00.020Z,0.34
2023-01-29T14:05:30.039Z,0.12
2023-01-29T14:07:58.002Z,0.07
2023-01-29T14:10:27.381Z,-0.01
2023-01-29T14:13:17.480Z,0.13
2023-01-29T14:15:46.767Z,0.14
2023-01-29T14:18:25.959Z,0.10
2023-01-29T14:20:58.691Z,0.11
2023-01-29T14:23:35.825Z,0.10
2023-01-29T14:26:05.987Z,0.01
2023-01-29T14:28:34.881Z,0.01
2023-01-29T14:31:03.342Z,-0.11
2023-01-29T14:33:41.069Z,-0.17
2023-01-29T14:36:13.114Z,-0.20
2023-01-29T14:38:46.313Z,-0.24
2023-01-29T14:41:27.235Z,-0.17
2023-01-29T14:44:43.242Z,-0.11
2023-01-29T14:47:19.907Z,-0.16
2023-01-29T14:50:03.418Z,-0.14
2023-01-29T14:52:40.185Z,-0.13
2023-01-29T14:55:18.321Z,-0.18
2023-01-29T14:57:45.871Z,-0.23
2023-01-29T15:00:27.732Z,-0.22
2023-01-29T15:03:01.703Z,-0.23
2023-01-29T15:05:36.996Z,-0.27
2023-01-29T15:08:13.320Z,-0.23
2023-01-29T15:10:45.729Z,-0.26
2023-01-29T15:13:21.050Z,-0.25
2023-01-29T15:15:56.877Z,-0.35
2023-01-29T15:18:37.920Z,-0.38
2023-01-29T15:21:11.558Z,-0.39
2023-01-29T15:23:38.787Z,-0.44
2023-01-29T15:26:08.292Z,-0.51
2023-01-29T15:28:35.802Z,-0.55
2023-01-29T15:31:11.923Z,-0.58
2023-01-29T15:33:44.355Z,-0.67
2023-01-29T15:36:20.736Z,-0.72
2023-01-29T15:38:48.361Z,-0.76
2023-01-29T15:41:20.826Z,-0.80
2023-01-29T15:43:50.521Z,-0.93
2023-01-29T15:46:28.217Z,-0.98
2023-01-29T15:48:59.429Z,-1.08
2023-01-29T15:51:28.141Z,-1.10
2023-01-29T15:54:00.795Z,-1.11
2023-01-29T15:56:38.284Z,-1.18
2023-01-29T15:59:09.703Z,-1.20
2023-01-29T16:01:37.009Z,-1.25
2023-01-29T16:04:04.638Z,-1.28
2023-01-29T16:06:40.377Z,-1.36
2023-01-29T16:09:08.342Z,-1.41
2023-01-29T16:11:36.073Z,-1.49
2023-01-29T16:14:04.617Z,-1.59
2023-01-29T16:16:32.378Z,-1.63
2023-01-29T16:19:01.262Z,-1.72
2023-01-29T16:21:28.492Z,-1.79
2023-01-29T16:23:58.828Z,-1.90
2023-01-29T16:26:31.695Z,-1.93
2023-01-29T16:29:05.050Z,-2.05
2023-01-29T16:31:32.626Z,-2.15
2023-01-29T16:34:10.096Z,-2.22
2023-01-29T16:36:37.346Z,-2.26
2023-01-29T16:39:18.543Z,-2.36
2023-01-29T16:41:45.657Z,-2.44
2023-01-29T16:44:15.742Z,-2.50
2023-01-29T16:46:47.583Z,-2.52
2023-01-29T16:49:26.740Z,-2.58
2023-01-29T16:51:53.973Z,-2.64
2023-01-29T16:54:24.648Z,-2.69
2023-01-29T16:56:58.857Z,-2.71
2023-01-29T16:59:35.485Z,-2.74
2023-01-29T17:02:04.167Z,-2.80
2023-01-29T17:04:31.307Z,-2.81
2023-01-29T17:07:02.286Z,-2.84
2023-01-29T17:09:37.741Z,-2.87
2023-01-29T17:12:07.924Z,-2.92
2023-01-29T17:14:35.341Z,-2.93
2023-01-29T17:17:05.710Z,-2.99
2023-01-29T17:19:33.270Z,-3.03
2023-01-29T17:22:00.327Z,-3.06
2023-01-29T17:24:27.351Z,-3.09
2023-01-29T17:26:54.423Z,-3.10
2023-01-29T17:29:26.540Z,-3.13
2023-01-29T17:31:53.676Z,-3.13
2023-01-29T17:34:20.997Z,-3.16
2023-01-29T17:36:48.148Z,-3.21
2023-01-29T17:39:18.889Z,-3.22
2023-01-29T17:41:50.578Z,-3.21
2023-01-29T17:44:17.990Z,-3.19
2023-01-29T17:46:44.995Z,-3.16
2023-01-29T17:49:27.266Z,-3.11
2023-01-29T17:51:55.379Z,-3.06
2023-01-29T17:54:23.312Z,-3.02
2023-01-29T17:56:51.254Z,-2.95
2023-01-29T17:59:29.348Z,-2.91
2023-01-29T18:01:56.905Z,-2.83
2023-01-29T18:04:24.007Z,-2.80
2023-01-29T18:06:51.890Z,-2.76
2023-01-29T18:09:20.318Z,-2.71
2023-01-29T18:11:48.735Z,-2.68
2023-01-29T18:14:16.109Z,-2.68
2023-01-29T18:16:45.002Z,-2.68
2023-01-29T18:19:25.782Z,-2.70
2023-01-29T18:21:53.194Z,-2.68
2023-01-29T18:24:20.476Z,-2.65
2023-01-29T18:26:48.789Z,-2.68
2023-01-29T18:29:15.888Z,-2.71
2023-01-29T18:31:43.091Z,-2.69
2023-01-29T18:34:10.129Z,-2.69
2023-01-29T18:36:37.154Z,-2.65
2023-01-29T18:39:04.198Z,-2.67
2023-01-29T18:41:31.255Z,-2.66
2023-01-29T18:43:58.313Z,-2.63
2023-01-29T18:46:25.426Z,-2.62
2023-01-29T18:48:52.431Z,-2.65
2023-01-29T18:51:19.440Z,-2.63
2023-01-29T18:53:53.017Z,-2.62
2023-01-29T18:56:20.224Z,-2.59
2023-01-29T18:58:55.192Z,-2.52
2023-01-29T19:01:23.526Z,-2.49
2023-01-29T19:03:50.647Z,-2.44
2023-01-29T19:06:17.724Z,-2.41
2023-01-29T19:08:44.768Z,-2.37
2023-01-29T19:11:11.922Z,-2.32
2023-01-29T19:13:39.417Z,-2.28
2023-01-29T19:16:08.881Z,-2.23
2023-01-29T19:18:36.220Z,-2.19
2023-01-29T19:21:08.461Z,-2.15
2023-01-29T19:23:35.527Z,-2.15
2023-01-29T19:26:02.612Z,-2.17
2023-01-29T19:28:29.679Z,-2.16
2023-01-29T19:30:58.049Z,-2.15
2023-01-29T19:33:26.102Z,-2.12
2023-01-29T19:35:55.971Z,-2.11
2023-01-29T19:38:23.269Z,-2.09
2023-01-29T19:40:51.418Z,-2.11
2023-01-29T19:43:18.655Z,-2.11
2023-01-29T19:45:50.167Z,-2.19
2023-01-29T19:48:18.792Z,-2.22
2023-01-29T19:50:51.703Z,-2.27
2023-01-29T19:53:18.751Z,-2.35
2023-01-29T19:55:45.907Z,-2.36
2023-01-29T19:58:12.943Z,-2.38
2023-01-29T20:00:39.970Z,-2.37
2023-01-29T20:03:07.056Z,-2.42
2023-01-29T20:05:35.739Z,-2.41
2023-01-29T20:08:02.784Z,-2.41
2023-01-29T20:10:29.868Z,-2.43
2023-01-29T20:12:56.901Z,-2.47
2023-01-29T20:15:24.116Z,-2.53
2023-01-29T20:17:51.144Z,-2.57
2023-01-29T20:20:18.515Z,-2.61
2023-01-29T20:22:45.790Z,-2.73
2023-01-29T20:25:12.851Z,-2.77
2023-01-29T20:27:40.164Z,-2.83
2023-01-29T20:30:08.188Z,-2.94
2023-01-29T20:32:35.295Z,-2.99
2023-01-29T20:35:02.713Z,-3.11
2023-01-29T20:37:29.877Z,-3.16
2023-01-29T20:39:57.061Z,-3.17
2023-01-29T20:42:24.130Z,-3.25
2023-01-29T20:44:51.209Z,-3.23
2023-01-29T20:47:18.307Z,-3.25
2023-01-29T20:49:45.358Z,-3.32
2023-01-29T20:52:12.489Z,-3.33
2023-01-29T20:54:39.563Z,-3.30
2023-01-29T20:57:06.743Z,-3.33
2023-01-29T20:59:34.896Z,-3.32
2023-01-29T21:02:01.988Z,-3.32
2023-01-29T21:04:29.048Z,-3.38
2023-01-29T21:06:56.085Z,-3.43
2023-01-29T21:09:23.279Z,-3.48
2023-01-29T21:11:50.288Z,-3.45
2023-01-29T21:14:17.307Z,-3.48
2023-01-29T21:16:44.363Z,-3.50
2023-01-29T21:19:13.399Z,-3.56
2023-01-29T21:21:40.508Z,-3.57
2023-01-29T21:24:07.651Z,-3.59
2023-01-29T21:26:35.447Z,-3.60
2023-01-29T21:29:02.534Z,-3.62
2023-01-29T21:31:29.669Z,-3.62
2023-01-29T21:33:56.781Z,-3.60
2023-01-29T21:36:23.872Z,-3.60
2023-01-29T21:38:50.908Z,-3.60
2023-01-29T21:41:18.012Z,-3.61
2023-01-29T21:43:45.098Z,-3.62
2023-01-29T21:46:12.380Z,-3.61
2023-01-29T21:48:40.505Z,-3.62
2023-01-29T21:51:08.425Z,-3.61
2023-01-29T21:53:35.481Z,-3.62
2023-01-29T21:56:05.000Z,-3.59
2023-01-29T21:58:32.339Z,-3.55
2023-01-29T22:01:18.554Z,-3.53
2023-01-29T22:03:47.535Z,-3.49
2023-01-29T22:06:15.453Z,-3.46
2023-01-29T22:08:42.638Z,-3.41
2023-01-29T22:11:10.266Z,-3.34
2023-01-29T22:13:37.403Z,-3.31
2023-01-29T22:16:04.733Z,-3.26
2023-01-29T22:18:31.940Z,-3.19
2023-01-29T22:20:58.950Z,-3.15
2023-01-29T22:23:25.935Z,-3.09
2023-01-29T22:25:52.946Z,-3.00
2023-01-29T22:28:20.086Z,-2.92
2023-01-29T22:30:47.183Z,-2.84
2023-01-29T22:33:14.206Z,-2.77
2023-01-29T22:35:41.165Z,-2.68
2023-01-29T22:38:08.193Z,-2.59
2023-01-29T22:40:35.204Z,-2.53
2023-01-29T22:43:02.217Z,-2.43
2023-01-29T22:45:29.183Z,-2.39
2023-01-29T22:47:56.452Z,-2.29
2023-01-29T22:50:23.480Z,-2.23
2023-01-29T22:52:50.510Z,-2.18
2023-01-29T22:55:17.623Z,-2.12
2023-01-29T22:57:48.501Z,-2.09
2023-01-29T23:00:16.417Z,-2.04
2023-01-29T23:02:43.653Z,-1.93
2023-01-29T23:05:10.665Z,-1.87
2023-01-29T23:07:37.676Z,-1.82
2023-01-29T23:10:06.519Z,-1.79
2023-01-29T23:12:34.328Z,-1.72
2023-01-29T23:15:01.356Z,-1.71
2023-01-29T23:17:28.379Z,-1.65
2023-01-29T23:19:55.435Z,-1.61
2023-01-29T23:22:22.544Z,-1.57
2023-01-29T23:24:49.704Z,-1.59
2023-01-29T23:27:16.855Z,-1.56
2023-01-29T23:29:48.103Z,-1.54
2023-01-29T23:32:18.154Z,-1.49
2023-01-29T23:34:45.391Z,-1.49
2023-01-29T23:37:12.742Z,-1.47
2023-01-29T23:39:39.807Z,-1.45
2023-01-29T23:42:06.797Z,-1.46
2023-01-29T23:44:33.855Z,-1.38
2023-01-29T23:47:01.131Z,-1.38
2023-01-29T23:49:28.163Z,-1.35
2023-01-29T23:51:55.250Z,-1.32
2023-01-29T23:54:22.284Z,-1.33
2023-01-29T23:56:49.683Z,-1.27
2023-01-29T23:59:17.158Z,-1.30
